Newport, TN (37821)

9:07 AM EDT on October 20, 2014 (GMT -0400)
Pigeon River Rafting | Change Station
CLOSE
Current Station
Personal Weather Station
Location: Hartford, TN
Elevation: 509 m
Nearby Weather Stations

Elev 509 m 35.81 °N, 83.15 °W | Updated 9 minutes ago

Partly Cloudy
Partly Cloudy
6.3 °C
Feels Like 6 °C
N
0.0
Wind Variable Wind from WSW
Gusts 0.0 km/h

Today
High -- | Low -- °C
--% Chance of Precip.
Yesterday
High -- | Low -- °C
Precip. -- mm
7:43 AM 6:50 PM
Waning Crescent, 11% visible
Pressure 1020 hPa
Visibility 8.0 kilometers
Clouds Few 30 m
Scattered Clouds 7620 m
Windchill 6 °C
Dew Point 6 °C
Humidity 99%
Rainfall 0 mm
Snow Depth Not available.
UV 0 out of 12
Pollen 1.60 out of 12
Air Quality Not available.
Flu Activity Sporadic
METAR KTYS 201253Z 10003KT 5SM BR FEW001 SCT250 08/08 A3012 RMK AO2 SLP200 VIS SW-NW 11/2 T00830078

More Conditions Fewer Conditions

Pressure 1020 hPa
Visibility 8.0 kilometers
Clouds Few 30 m
Scattered Clouds 7620 m
Windchill 6 °C
Dew Point 6 °C
Humidity 99%
Rainfall 0 mm
Snow Depth Not available.
UV 0 out of 12
Pollen 1.60 out of 12
Air Quality Not available.
Flu Activity Sporadic
METAR KTYS 201253Z 10003KT 5SM BR FEW001 SCT250 08/08 A3012 RMK AO2 SLP200 VIS SW-NW 11/2 T00830078

More Conditions Fewer Conditions

10-Day Weather Forecast

Almanac

Astronomy

Oct. 20, 2014 Rise Set
Actual Time 7:43 AM EDT 6:50 PM EDT
Civil Twilight 7:17 AM EDT 7:16 PM EDT
Nautical Twilight 6:48 AM EDT 7:46 PM EDT
Astronomical Twilight 6:18 AM EDT 8:16 PM EDT
Moon 4:37 AM EDT 5:07 PM EDT
Length of Visible Light 11h 58m
Length of Day
11h 06m
Waning Crescent, 11% of the Moon is Illuminated
Today
Waning Crescent
Oct 23
New
Oct 30
First Quarter
Nov 6
Full
Nov 14
Last Quarter

Today's Extremes

State Highs State Lows

Community

WunderPhotos

Upload Photos

1,763,363 photos uploaded!

Nearby

Snow Depth

Station Depth Elevation
No new snow has been reported.

Earthquake Activity

City Distance Mag. Time & Date
No recent earthquake activity has been reported nearby.
Minimum magnitude displayed is 2.5.

Coastal Water Temperatures

Place Temperature
No Stations Reporting

Nearby Weather Stations